createdAt,value
2023-05-29T00:01:03.399Z,13.60
2023-05-29T00:04:05.594Z,13.50
2023-05-29T00:07:07.463Z,13.30
2023-05-29T00:13:47.155Z,13.40
2023-05-29T00:16:50.120Z,13.40
2023-05-29T00:19:51.985Z,13.20
2023-05-29T00:22:53.748Z,13.10
2023-05-29T00:25:55.876Z,12.90
2023-05-29T00:28:57.850Z,13.00
2023-05-29T00:31:59.710Z,12.90
2023-05-29T00:35:01.506Z,12.70
2023-05-29T00:38:03.384Z,12.90
2023-05-29T00:41:05.769Z,12.80
2023-05-29T00:44:07.721Z,12.60
2023-05-29T00:47:09.716Z,12.50
2023-05-29T00:50:14.464Z,12.40
2023-05-29T00:53:16.748Z,12.40
2023-05-29T00:56:19.027Z,12.50
2023-05-29T00:59:22.356Z,12.40
2023-05-29T01:02:24.377Z,12.30
2023-05-29T01:05:26.236Z,12.30
2023-05-29T01:08:27.996Z,12.10
2023-05-29T01:11:43.904Z,12.10
2023-05-29T01:15:10.361Z,12.00
2023-05-29T01:18:28.041Z,12.00
2023-05-29T01:21:41.749Z,11.90
2023-05-29T01:25:18.920Z,11.70
2023-05-29T01:28:22.750Z,11.80
2023-05-29T01:31:26.941Z,11.70
2023-05-29T01:34:29.288Z,11.70
2023-05-29T01:37:31.023Z,11.80
2023-05-29T01:40:32.754Z,11.80
2023-05-29T01:43:34.740Z,11.70
2023-05-29T01:46:40.681Z,11.80
2023-05-29T01:49:44.406Z,11.60
2023-05-29T01:52:46.714Z,11.60
2023-05-29T01:55:48.802Z,11.70
2023-05-29T01:58:52.286Z,11.70
2023-05-29T02:01:54.044Z,11.70
2023-05-29T02:04:55.810Z,11.70
2023-05-29T02:07:57.652Z,11.60
2023-05-29T02:10:59.505Z,11.60
2023-05-29T02:14:04.610Z,11.40
2023-05-29T02:17:06.700Z,11.50
2023-05-29T02:20:09.122Z,11.50
2023-05-29T02:23:11.066Z,11.50
2023-05-29T02:26:14.514Z,11.50
2023-05-29T02:29:16.464Z,11.30
2023-05-29T02:32:18.143Z,11.30
2023-05-29T02:35:21.995Z,11.20
2023-05-29T02:38:24.561Z,11.30
2023-05-29T02:41:26.586Z,11.40
2023-05-29T02:44:28.324Z,11.40
2023-05-29T02:51:01.208Z,11.40
2023-05-29T02:54:02.971Z,11.30
2023-05-29T02:57:05.917Z,11.30
2023-05-29T03:00:09.152Z,11.10
2023-05-29T03:03:11.156Z,11.10
2023-05-29T03:06:14.715Z,11.10
2023-05-29T03:09:17.456Z,11.00
2023-05-29T03:12:19.933Z,11.10
2023-05-29T03:15:22.543Z,11.00
2023-05-29T03:18:24.581Z,10.90
2023-05-29T03:21:26.338Z,11.00
2023-05-29T03:24:28.571Z,10.80
2023-05-29T03:27:31.712Z,11.00
2023-05-29T03:30:41.449Z,11.00
2023-05-29T03:33:44.649Z,11.00
2023-05-29T03:37:16.045Z,10.90
2023-05-29T03:40:17.859Z,11.10
2023-05-29T03:43:19.751Z,11.10
2023-05-29T03:46:22.231Z,11.00
2023-05-29T03:49:24.581Z,11.00
2023-05-29T03:52:26.673Z,11.10
2023-05-29T03:55:30.333Z,11.10
2023-05-29T03:58:32.140Z,11.20
2023-05-29T04:01:35.585Z,11.20
2023-05-29T04:04:37.439Z,11.10
2023-05-29T04:07:39.576Z,11.10
2023-05-29T04:10:41.447Z,11.20
2023-05-29T04:13:43.444Z,11.00
2023-05-29T04:16:46.007Z,11.10
2023-05-29T04:19:48.461Z,11.20
2023-05-29T04:22:52.504Z,11.00
2023-05-29T04:25:55.170Z,11.00
2023-05-29T04:29:01.369Z,11.00
2023-05-29T04:32:04.303Z,11.00
2023-05-29T04:35:06.959Z,11.00
2023-05-29T04:38:11.477Z,11.00
2023-05-29T04:41:13.475Z,11.00
2023-05-29T04:44:16.170Z,11.10
2023-05-29T04:47:24.067Z,11.00
2023-05-29T04:50:25.928Z,11.10
2023-05-29T04:53:28.752Z,11.20
2023-05-29T04:56:30.568Z,11.20
2023-05-29T04:59:32.622Z,11.30
2023-05-29T05:03:06.566Z,11.30
2023-05-29T05:06:11.460Z,11.30
2023-05-29T05:09:14.113Z,11.50
2023-05-29T05:12:17.118Z,11.90
2023-05-29T05:15:19.256Z,12.70
2023-05-29T05:18:24.030Z,12.00
2023-05-29T05:21:34.044Z,11.50
2023-05-29T05:24:39.384Z,12.40
2023-05-29T05:27:41.773Z,12.10
2023-05-29T05:30:43.826Z,12.90
2023-05-29T05:33:46.057Z,12.50
2023-05-29T05:36:47.936Z,11.70
2023-05-29T05:39:51.937Z,11.80
2023-05-29T05:42:53.904Z,13.00
2023-05-29T05:46:08.207Z,12.00
2023-05-29T05:49:13.364Z,11.80
2023-05-29T05:52:17.983Z,13.40
2023-05-29T05:55:22.830Z,12.00
2023-05-29T05:58:31.098Z,11.70
2023-05-29T06:01:34.245Z,12.50
2023-05-29T06:04:39.899Z,12.70
2023-05-29T06:07:45.914Z,12.80
2023-05-29T06:10:47.887Z,11.70
2023-05-29T06:13:49.820Z,12.30
2023-05-29T06:16:58.605Z,12.50
2023-05-29T06:20:01.660Z,12.50
2023-05-29T06:23:04.983Z,12.60
2023-05-29T06:26:12.303Z,12.80
2023-05-29T06:29:17.312Z,14.10
2023-05-29T06:32:20.134Z,13.30
2023-05-29T06:35:22.170Z,12.60
2023-05-29T06:38:28.328Z,12.50
2023-05-29T06:41:30.382Z,13.70
2023-05-29T06:44:35.162Z,13.80
2023-05-29T06:47:37.429Z,14.20
2023-05-29T06:50:41.066Z,12.80
2023-05-29T06:54:10.364Z,13.40
2023-05-29T06:57:16.100Z,12.90
2023-05-29T07:03:53.914Z,13.10
2023-05-29T07:06:58.936Z,13.70
2023-05-29T07:10:01.501Z,13.30
2023-05-29T07:13:03.759Z,14.10
2023-05-29T07:16:17.404Z,13.10
2023-05-29T07:19:30.477Z,13.40
2023-05-29T07:22:40.802Z,14.50
2023-05-29T07:25:50.592Z,13.40
2023-05-29T07:28:54.690Z,14.10
2023-05-29T07:31:57.360Z,13.00
2023-05-29T07:35:01.165Z,14.50
2023-05-29T07:38:03.249Z,14.10
2023-05-29T07:41:10.800Z,14.10
2023-05-29T07:44:14.876Z,13.00
2023-05-29T07:47:17.024Z,13.60
2023-05-29T07:50:23.553Z,14.10
2023-05-29T07:53:26.194Z,14.40
2023-05-29T07:56:29.045Z,14.60
2023-05-29T07:59:31.693Z,14.90
2023-05-29T08:02:38.554Z,15.50
2023-05-29T08:06:00.358Z,14.10
2023-05-29T08:09:07.317Z,14.80
2023-05-29T08:12:12.283Z,14.00
2023-05-29T08:15:14.182Z,14.10
2023-05-29T08:18:18.829Z,14.50
2023-05-29T08:21:24.922Z,16.10
2023-05-29T08:24:29.401Z,15.80
2023-05-29T08:27:40.894Z,14.90
2023-05-29T08:30:43.894Z,14.90
2023-05-29T08:33:45.857Z,15.50
2023-05-29T08:36:54.206Z,15.40
2023-05-29T08:39:58.858Z,15.80
2023-05-29T08:43:19.097Z,16.10
2023-05-29T08:46:21.437Z,15.30
2023-05-29T08:49:26.738Z,15.40
2023-05-29T08:52:33.967Z,15.20
2023-05-29T08:55:36.215Z,15.10
2023-05-29T08:58:40.312Z,16.50
2023-05-29T09:01:48.220Z,15.70
2023-05-29T09:04:57.761Z,16.50
2023-05-29T09:08:08.484Z,15.60
2023-05-29T09:11:10.336Z,15.70
2023-05-29T09:14:42.597Z,16.10
2023-05-29T09:17:50.102Z,16.20
2023-05-29T09:20:53.561Z,16.00
2023-05-29T09:24:03.854Z,16.40
2023-05-29T09:27:08.483Z,16.60
2023-05-29T09:30:17.159Z,16.50
2023-05-29T09:33:22.401Z,16.50
2023-05-29T09:36:43.397Z,16.70
2023-05-29T09:39:58.375Z,16.60
2023-05-29T09:43:18.015Z,16.70
2023-05-29T09:46:20.351Z,16.60
2023-05-29T09:49:25.042Z,16.60
2023-05-29T09:52:31.347Z,16.80
2023-05-29T09:55:34.932Z,17.30
2023-05-29T09:58:48.956Z,16.90
2023-05-29T10:02:05.245Z,17.70
2023-05-29T10:05:12.845Z,18.00
2023-05-29T10:08:16.488Z,18.00
2023-05-29T10:11:27.545Z,17.90
2023-05-29T10:14:32.971Z,18.60
2023-05-29T10:17:37.223Z,18.50
2023-05-29T10:20:40.004Z,18.30
2023-05-29T10:23:49.924Z,18.90
2023-05-29T10:26:53.433Z,18.60
2023-05-29T10:30:11.037Z,19.00
2023-05-29T10:33:13.794Z,19.10
2023-05-29T10:36:25.222Z,19.40
2023-05-29T10:39:27.195Z,19.50
2023-05-29T10:42:51.523Z,18.80
2023-05-29T10:45:53.784Z,18.60
2023-05-29T10:48:56.843Z,18.50
2023-05-29T10:52:01.107Z,18.50
2023-05-29T10:55:05.354Z,18.80
2023-05-29T10:58:14.478Z,18.90
2023-05-29T11:01:16.320Z,18.40
2023-05-29T11:04:21.318Z,19.00
2023-05-29T11:07:36.564Z,19.00
2023-05-29T11:10:53.883Z,18.60
2023-05-29T11:13:57.641Z,19.10
2023-05-29T11:16:59.478Z,18.60
2023-05-29T11:20:09.711Z,18.30
2023-05-29T11:23:19.631Z,18.10
2023-05-29T11:26:25.419Z,18.50
2023-05-29T11:29:30.762Z,18.30
2023-05-29T11:32:37.337Z,17.90
2023-05-29T11:35:40.139Z,18.30
2023-05-29T11:38:42.000Z,18.30
2023-05-29T11:41:44.009Z,18.60
2023-05-29T11:44:45.981Z,18.10
2023-05-29T11:47:54.258Z,18.30
2023-05-29T11:50:56.346Z,18.30
2023-05-29T11:53:59.376Z,18.80
2023-05-29T11:57:03.441Z,18.60
2023-05-29T12:00:10.948Z,18.50
2023-05-29T12:03:12.903Z,18.40
2023-05-29T12:06:14.809Z,18.50
2023-05-29T12:09:30.242Z,18.40
2023-05-29T12:12:32.113Z,18.30
2023-05-29T12:15:34.002Z,18.40
2023-05-29T12:18:36.115Z,18.60
2023-05-29T12:21:45.862Z,18.20
2023-05-29T12:24:48.709Z,18.40
2023-05-29T12:27:50.862Z,18.30
2023-05-29T12:31:00.539Z,18.40
2023-05-29T12:34:11.170Z,18.40
2023-05-29T12:37:15.470Z,18.30
2023-05-29T12:40:19.842Z,18.90
2023-05-29T12:43:23.144Z,18.40
2023-05-29T12:46:26.732Z,19.80
2023-05-29T12:49:30.719Z,18.40
2023-05-29T12:52:32.567Z,18.10
2023-05-29T12:55:40.493Z,18.20
2023-05-29T12:58:42.710Z,18.90
2023-05-29T13:01:45.049Z,18.90
2023-05-29T13:04:47.026Z,18.60
2023-05-29T13:07:49.538Z,18.60
2023-05-29T13:10:51.325Z,18.60
2023-05-29T13:13:53.430Z,19.20
2023-05-29T13:16:55.326Z,18.70
2023-05-29T13:19:57.368Z,18.50
2023-05-29T13:22:59.440Z,19.40
2023-05-29T13:26:01.257Z,18.60
2023-05-29T13:29:03.102Z,19.20
2023-05-29T13:32:05.350Z,19.60
2023-05-29T13:35:07.467Z,18.60
2023-05-29T13:38:09.420Z,18.80
2023-05-29T13:41:11.385Z,18.80
2023-05-29T13:44:13.252Z,18.60
2023-05-29T13:47:15.224Z,18.60
2023-05-29T13:50:17.382Z,18.70
2023-05-29T13:53:19.470Z,19.50
2023-05-29T13:56:21.674Z,18.60
2023-05-29T13:59:23.651Z,19.00
2023-05-29T14:02:26.607Z,18.70
2023-05-29T14:05:28.553Z,19.00
2023-05-29T14:08:30.426Z,18.50
2023-05-29T14:11:36.416Z,18.50
2023-05-29T14:14:39.504Z,18.60
2023-05-29T14:17:41.791Z,18.60
2023-05-29T14:20:43.705Z,18.90
2023-05-29T14:23:45.747Z,18.90
2023-05-29T14:26:48.607Z,18.80
2023-05-29T14:29:50.752Z,18.60
2023-05-29T14:32:53.287Z,18.80
2023-05-29T14:35:55.311Z,18.90
2023-05-29T14:38:57.301Z,18.90
2023-05-29T14:41:59.110Z,18.90
2023-05-29T14:45:01.607Z,18.80
2023-05-29T14:48:03.595Z,18.90
2023-05-29T14:51:05.637Z,18.90
2023-05-29T14:54:07.591Z,18.70
2023-05-29T14:57:09.415Z,18.70
2023-05-29T15:00:11.807Z,19.00
2023-05-29T15:03:13.896Z,18.80
2023-05-29T15:06:15.844Z,18.60
2023-05-29T15:09:18.268Z,18.60
2023-05-29T15:12:20.159Z,18.80
2023-05-29T15:15:23.598Z,18.80
2023-05-29T15:18:34.891Z,19.30
2023-05-29T15:21:36.956Z,18.80
2023-05-29T15:24:39.027Z,18.90
2023-05-29T15:27:41.034Z,18.90
2023-05-29T15:30:43.164Z,18.70
2023-05-29T15:33:45.213Z,18.80
2023-05-29T15:36:47.053Z,19.50
2023-05-29T15:39:49.074Z,19.00
2023-05-29T15:42:51.465Z,18.90
2023-05-29T15:45:53.356Z,20.00
2023-05-29T15:48:55.554Z,19.00
2023-05-29T15:51:57.376Z,19.30
2023-05-29T15:55:02.010Z,19.10
2023-05-29T15:58:06.767Z,19.30
2023-05-29T16:01:08.969Z,19.10
2023-05-29T16:04:11.272Z,19.20
2023-05-29T16:07:13.191Z,19.20
2023-05-29T16:10:16.953Z,19.10
2023-05-29T16:13:20.504Z,20.00
2023-05-29T16:16:22.437Z,19.00
2023-05-29T16:19:24.287Z,19.10
2023-05-29T16:22:40.514Z,19.10
2023-05-29T16:25:57.338Z,19.40
2023-05-29T16:29:04.139Z,19.30
2023-05-29T16:32:06.400Z,20.10
2023-05-29T16:35:08.999Z,21.70
2023-05-29T16:38:13.349Z,20.60
2023-05-29T16:41:15.559Z,20.20
2023-05-29T16:44:17.759Z,19.90
2023-05-29T16:47:19.690Z,19.60
2023-05-29T16:50:24.692Z,19.70
2023-05-29T16:53:26.911Z,19.30
2023-05-29T16:56:29.354Z,19.70
2023-05-29T16:59:31.641Z,20.60
2023-05-29T17:02:34.339Z,20.40
2023-05-29T17:05:36.460Z,20.10
2023-05-29T17:08:38.480Z,19.50
2023-05-29T17:11:40.615Z,19.30
2023-05-29T17:14:42.448Z,19.60
2023-05-29T17:17:44.308Z,19.60
2023-05-29T17:20:46.295Z,19.50
2023-05-29T17:23:48.459Z,19.80
2023-05-29T17:26:53.114Z,19.40
2023-05-29T17:29:55.226Z,19.50
2023-05-29T17:33:11.431Z,19.80
2023-05-29T17:36:13.546Z,20.60
2023-05-29T17:39:15.698Z,19.20
2023-05-29T17:42:17.800Z,18.80
2023-05-29T17:45:22.856Z,19.30
2023-05-29T17:48:25.657Z,18.90
2023-05-29T17:51:28.601Z,18.50
2023-05-29T17:54:34.052Z,18.50
2023-05-29T17:57:36.310Z,18.60
2023-05-29T18:00:38.620Z,18.30
2023-05-29T18:03:43.163Z,18.30
2023-05-29T18:06:45.109Z,18.20
2023-05-29T18:09:52.791Z,18.00
2023-05-29T18:12:55.078Z,19.10
2023-05-29T18:15:57.607Z,17.90
2023-05-29T18:19:07.077Z,17.10
2023-05-29T18:22:12.278Z,18.20
2023-05-29T18:25:15.627Z,17.60
2023-05-29T18:28:18.181Z,19.10
2023-05-29T18:31:20.803Z,19.00
2023-05-29T18:34:22.654Z,17.60
2023-05-29T18:37:24.507Z,18.50
2023-05-29T18:40:32.074Z,18.40
2023-05-29T18:43:34.158Z,19.00
2023-05-29T18:46:39.985Z,18.50
2023-05-29T18:49:43.994Z,18.50
2023-05-29T18:52:46.018Z,18.10
2023-05-29T18:55:50.829Z,18.50
2023-05-29T18:58:52.835Z,18.60
2023-05-29T19:01:54.812Z,17.90
2023-05-29T19:05:02.047Z,17.00
2023-05-29T19:08:08.135Z,16.70
2023-05-29T19:11:12.592Z,16.70
2023-05-29T19:14:17.048Z,17.60
2023-05-29T19:17:19.847Z,15.60
2023-05-29T19:20:24.431Z,16.80
2023-05-29T19:23:26.861Z,16.40
2023-05-29T19:26:31.397Z,16.50
2023-05-29T19:29:33.255Z,16.40
2023-05-29T19:32:36.540Z,16.40
2023-05-29T19:35:38.353Z,16.90
2023-05-29T19:38:40.616Z,16.20
2023-05-29T19:41:43.707Z,16.00
2023-05-29T19:44:45.544Z,16.00
2023-05-29T19:47:47.409Z,16.00
2023-05-29T19:50:49.468Z,16.00
2023-05-29T19:53:54.781Z,15.80
2023-05-29T19:56:57.844Z,15.70
2023-05-29T20:00:00.245Z,16.50
2023-05-29T20:03:02.444Z,16.90
2023-05-29T20:06:05.355Z,15.60
2023-05-29T20:09:10.846Z,15.50
2023-05-29T20:12:12.746Z,16.50
2023-05-29T20:15:14.675Z,15.60
2023-05-29T20:18:16.634Z,15.80
2023-05-29T20:21:18.560Z,15.30
2023-05-29T20:24:22.862Z,15.80
2023-05-29T20:27:27.788Z,16.10
2023-05-29T20:30:30.502Z,14.50
2023-05-29T20:33:32.435Z,15.80
2023-05-29T20:36:34.796Z,16.20
2023-05-29T20:39:36.824Z,16.10
2023-05-29T20:42:39.005Z,15.90
2023-05-29T20:45:45.007Z,14.90
2023-05-29T20:48:46.910Z,14.90
2023-05-29T20:51:48.915Z,14.80
2023-05-29T20:54:50.940Z,14.70
2023-05-29T20:57:56.052Z,14.70
2023-05-29T21:00:58.264Z,15.40
2023-05-29T21:04:01.054Z,16.00
2023-05-29T21:07:02.972Z,16.00
2023-05-29T21:13:22.625Z,14.30
2023-05-29T21:16:24.595Z,14.30
2023-05-29T21:19:26.707Z,14.20
2023-05-29T21:22:30.484Z,14.10
2023-05-29T21:25:33.059Z,14.10
2023-05-29T21:28:34.829Z,14.10
2023-05-29T21:31:40.409Z,13.90
2023-05-29T21:34:42.398Z,13.90
2023-05-29T21:37:44.153Z,13.90
2023-05-29T21:40:45.933Z,13.70
2023-05-29T21:43:47.777Z,13.70
2023-05-29T21:46:49.555Z,13.70
2023-05-29T21:49:51.795Z,13.70
2023-05-29T21:52:53.739Z,13.50
2023-05-29T21:55:56.105Z,13.40
2023-05-29T21:58:57.949Z,13.30
2023-05-29T22:02:00.467Z,13.30
2023-05-29T22:05:02.355Z,13.00
2023-05-29T22:08:04.256Z,13.20
2023-05-29T22:11:06.240Z,13.20
2023-05-29T22:14:08.102Z,13.10
2023-05-29T22:17:13.275Z,13.10
2023-05-29T22:20:15.737Z,12.90
2023-05-29T22:23:18.494Z,13.00
2023-05-29T22:26:21.389Z,12.90
2023-05-29T22:36:29.755Z,12.70
2023-05-29T22:39:32.085Z,12.60
2023-05-29T22:42:33.860Z,12.50
2023-05-29T22:45:35.641Z,12.50
2023-05-29T22:48:38.796Z,12.40
2023-05-29T22:51:40.651Z,12.30
2023-05-29T22:54:42.480Z,12.30
2023-05-29T22:57:44.201Z,12.20
2023-05-29T23:00:47.003Z,12.30
2023-05-29T23:03:48.975Z,12.20
2023-05-29T23:06:50.880Z,12.00
2023-05-29T23:09:52.759Z,12.00
2023-05-29T23:12:55.006Z,12.00
2023-05-29T23:15:57.085Z,12.00
2023-05-29T23:18:58.893Z,11.90
2023-05-29T23:22:00.627Z,11.90
2023-05-29T23:25:05.992Z,11.80
2023-05-29T23:28:08.005Z,11.60
2023-05-29T23:31:09.783Z,11.70
2023-05-29T23:34:11.569Z,11.70
2023-05-29T23:37:13.870Z,11.70
2023-05-29T23:40:15.810Z,11.70
2023-05-29T23:43:17.692Z,11.60
2023-05-29T23:46:20.682Z,11.60
2023-05-29T23:49:23.053Z,11.50
2023-05-29T23:52:25.094Z,11.50
2023-05-29T23:55:33.321Z,11.40
2023-05-29T23:58:35.028Z,11.30
